sensor_id;sensor_type;location;lat;lon;timestamp;pressure;altitude;pressure_sealevel;temperature;humidity
21574;BME280;10948;48.706;9.258;2023-03-04T00:01:57;98302.59;;;0.28;100.00
21574;BME280;10948;48.706;9.258;2023-03-04T00:04:22;98315.44;;;0.23;100.00
21574;BME280;10948;48.706;9.258;2023-03-04T00:06:48;98319.03;;;0.06;100.00
21574;BME280;10948;48.706;9.258;2023-03-04T00:09:14;98318.06;;;0.17;100.00
21574;BME280;10948;48.706;9.258;2023-03-04T00:11:39;98318.25;;;0.01;100.00
21574;BME280;10948;48.706;9.258;2023-03-04T00:14:04;98315.47;;;0.19;100.00
21574;BME280;10948;48.706;9.258;2023-03-04T00:16:29;98312.59;;;0.49;100.00
21574;BME280;10948;48.706;9.258;2023-03-04T00:18:55;98307.66;;;0.31;100.00
21574;BME280;10948;48.706;9.258;2023-03-04T00:21:20;98311.84;;;0.39;100.00
21574;BME280;10948;48.706;9.258;2023-03-04T00:23:46;98309.41;;;0.30;100.00
21574;BME280;10948;48.706;9.258;2023-03-04T00:26:11;98311.34;;;0.06;100.00
21574;BME280;10948;48.706;9.258;2023-03-04T00:28:38;98314.63;;;0.20;100.00
21574;BME280;10948;48.706;9.258;2023-03-04T00:31:04;98317.44;;;-0.06;100.00
21574;BME280;10948;48.706;9.258;2023-03-04T00:33:29;98319.13;;;-0.02;100.00
21574;BME280;10948;48.706;9.258;2023-03-04T00:35:54;98314.06;;;-0.09;100.00
21574;BME280;10948;48.706;9.258;2023-03-04T00:38:19;98309.59;;;0.14;100.00
21574;BME280;10948;48.706;9.258;2023-03-04T00:40:45;98303.53;;;0.19;100.00
21574;BME280;10948;48.706;9.258;2023-03-04T00:43:10;98319.13;;;-0.03;100.00
21574;BME280;10948;48.706;9.258;2023-03-04T00:45:35;98308.69;;;0.16;100.00
21574;BME280;10948;48.706;9.258;2023-03-04T00:48:00;98309.47;;;0.23;100.00
21574;BME280;10948;48.706;9.258;2023-03-04T00:50:26;98306.44;;;-0.12;100.00
21574;BME280;10948;48.706;9.258;2023-03-04T00:52:51;98310.63;;;-0.08;100.00
21574;BME280;10948;48.706;9.258;2023-03-04T00:55:16;98308.09;;;-0.08;100.00
21574;BME280;10948;48.706;9.258;2023-03-04T00:57:41;98307.97;;;0.04;100.00
21574;BME280;10948;48.706;9.258;2023-03-04T01:00:07;98308.44;;;-0.44;100.00
21574;BME280;10948;48.706;9.258;2023-03-04T01:02:32;98301.34;;;-0.15;100.00
21574;BME280;10948;48.706;9.258;2023-03-04T01:04:57;98306.72;;;-0.45;100.00
21574;BME280;10948;48.706;9.258;2023-03-04T01:07:23;98304.09;;;-0.37;100.00
21574;BME280;10948;48.706;9.258;2023-03-04T01:09:48;98305.03;;;-0.46;100.00
21574;BME280;10948;48.706;9.258;2023-03-04T01:12:13;98297.19;;;-0.28;100.00
21574;BME280;10948;48.706;9.258;2023-03-04T01:14:38;98305.88;;;-0.47;100.00
21574;BME280;10948;48.706;9.258;2023-03-04T01:17:04;98306.78;;;-0.52;100.00
21574;BME280;10948;48.706;9.258;2023-03-04T01:19:29;98299.03;;;-0.40;100.00
21574;BME280;10948;48.706;9.258;2023-03-04T01:21:54;98303.38;;;-0.50;100.00
21574;BME280;10948;48.706;9.258;2023-03-04T01:24:19;98302.50;;;-0.50;100.00
21574;BME280;10948;48.706;9.258;2023-03-04T01:26:45;98298.06;;;-0.29;100.00
21574;BME280;10948;48.706;9.258;2023-03-04T01:29:10;98292.19;;;-0.40;100.00
21574;BME280;10948;48.706;9.258;2023-03-04T01:31:35;98291.53;;;-0.63;100.00
21574;BME280;10948;48.706;9.258;2023-03-04T01:34:00;98295.88;;;-0.69;100.00
21574;BME280;10948;48.706;9.258;2023-03-04T01:36:26;98288.91;;;-0.51;100.00
21574;BME280;10948;48.706;9.258;2023-03-04T01:38:51;98294.09;;;-0.63;100.00
21574;BME280;10948;48.706;9.258;2023-03-04T01:41:16;98292.38;;;-0.59;100.00
21574;BME280;10948;48.706;9.258;2023-03-04T01:43:43;98289.63;;;-0.40;100.00
21574;BME280;10948;48.706;9.258;2023-03-04T01:46:09;98294.75;;;-0.40;100.00
21574;BME280;10948;48.706;9.258;2023-03-04T01:48:36;98292.16;;;-0.35;100.00
21574;BME280;10948;48.706;9.258;2023-03-04T01:51:03;98288.81;;;-0.43;100.00
21574;BME280;10948;48.706;9.258;2023-03-04T01:53:29;98293.09;;;-0.47;100.00
21574;BME280;10948;48.706;9.258;2023-03-04T01:55:56;98289.84;;;-0.64;100.00
21574;BME280;10948;48.706;9.258;2023-03-04T01:58:25;98290.84;;;-0.84;100.00
21574;BME280;10948;48.706;9.258;2023-03-04T02:00:52;98292.50;;;-0.74;100.00
21574;BME280;10948;48.706;9.258;2023-03-04T02:03:17;98287.38;;;-0.77;100.00
21574;BME280;10948;48.706;9.258;2023-03-04T02:05:46;98277.91;;;-0.59;100.00
21574;BME280;10948;48.706;9.258;2023-03-04T02:08:12;98284.75;;;-0.64;100.00
21574;BME280;10948;48.706;9.258;2023-03-04T02:10:38;98275.47;;;-0.78;100.00
21574;BME280;10948;48.706;9.258;2023-03-04T02:13:04;98284.09;;;-0.90;100.00
21574;BME280;10948;48.706;9.258;2023-03-04T02:15:30;98274.56;;;-0.70;100.00
21574;BME280;10948;48.706;9.258;2023-03-04T02:17:55;98273.63;;;-0.57;100.00
21574;BME280;10948;48.706;9.258;2023-03-04T02:22:48;98278.06;;;-0.83;100.00
21574;BME280;10948;48.706;9.258;2023-03-04T02:25:40;98272.09;;;-0.83;100.00
21574;BME280;10948;48.706;9.258;2023-03-04T02:28:02;98273.00;;;-0.86;100.00
21574;BME280;10948;48.706;9.258;2023-03-04T02:30:27;98269.59;;;-0.88;100.00
21574;BME280;10948;48.706;9.258;2023-03-04T02:32:52;98268.09;;;-1.13;100.00
21574;BME280;10948;48.706;9.258;2023-03-04T02:35:18;98278.19;;;-1.01;100.00
21574;BME280;10948;48.706;9.258;2023-03-04T02:37:44;98279.06;;;-1.00;100.00
21574;BME280;10948;48.706;9.258;2023-03-04T02:40:12;98280.72;;;-0.95;100.00
21574;BME280;10948;48.706;9.258;2023-03-04T02:42:38;98276.56;;;-1.11;100.00
21574;BME280;10948;48.706;9.258;2023-03-04T02:45:04;98283.41;;;-1.16;100.00
21574;BME280;10948;48.706;9.258;2023-03-04T02:47:29;98281.72;;;-1.17;100.00
21574;BME280;10948;48.706;9.258;2023-03-04T02:49:54;98275.78;;;-1.23;100.00
21574;BME280;10948;48.706;9.258;2023-03-04T02:52:21;98277.41;;;-1.09;100.00
21574;BME280;10948;48.706;9.258;2023-03-04T02:54:46;98285.09;;;-1.12;100.00
21574;BME280;10948;48.706;9.258;2023-03-04T02:57:12;98286.75;;;-1.05;100.00
21574;BME280;10948;48.706;9.258;2023-03-04T02:59:38;98285.06;;;-1.10;100.00
21574;BME280;10948;48.706;9.258;2023-03-04T03:02:04;98283.44;;;-1.23;100.00
21574;BME280;10948;48.706;9.258;2023-03-04T03:04:30;98285.13;;;-1.21;100.00
21574;BME280;10948;48.706;9.258;2023-03-04T03:06:55;98287.81;;;-1.43;100.00
21574;BME280;10948;48.706;9.258;2023-03-04T03:09:20;98288.53;;;-1.22;100.00
21574;BME280;10948;48.706;9.258;2023-03-04T03:11:46;98282.66;;;-1.36;100.00
21574;BME280;10948;48.706;9.258;2023-03-04T03:14:11;98285.19;;;-1.30;100.00
21574;BME280;10948;48.706;9.258;2023-03-04T03:16:36;98288.41;;;-0.98;100.00
21574;BME280;10948;48.706;9.258;2023-03-04T03:19:02;98280.84;;;-1.17;100.00
21574;BME280;10948;48.706;9.258;2023-03-04T03:21:27;98285.84;;;-1.01;100.00
21574;BME280;10948;48.706;9.258;2023-03-04T03:23:52;98275.88;;;-1.37;100.00
21574;BME280;10948;48.706;9.258;2023-03-04T03:26:18;98282.63;;;-1.31;100.00
21574;BME280;10948;48.706;9.258;2023-03-04T03:28:43;98281.78;;;-1.29;100.00
21574;BME280;10948;48.706;9.258;2023-03-04T03:31:09;98280.94;;;-1.31;100.00
21574;BME280;10948;48.706;9.258;2023-03-04T03:33:34;98279.25;;;-1.33;100.00
21574;BME280;10948;48.706;9.258;2023-03-04T03:35:59;98281.03;;;-1.47;100.00
21574;BME280;10948;48.706;9.258;2023-03-04T03:38:25;98286.97;;;-1.47;100.00
21574;BME280;10948;48.706;9.258;2023-03-04T03:40:50;98292.19;;;-1.74;100.00
21574;BME280;10948;48.706;9.258;2023-03-04T03:43:15;98283.66;;;-1.67;100.00
21574;BME280;10948;48.706;9.258;2023-03-04T03:45:41;98281.91;;;-1.50;100.00
21574;BME280;10948;48.706;9.258;2023-03-04T03:48:06;98284.50;;;-1.59;100.00
21574;BME280;10948;48.706;9.258;2023-03-04T03:50:31;98286.19;;;-1.58;100.00
21574;BME280;10948;48.706;9.258;2023-03-04T03:52:57;98281.09;;;-1.59;100.00
21574;BME280;10948;48.706;9.258;2023-03-04T03:55:24;98281.97;;;-1.74;100.00
21574;BME280;10948;48.706;9.258;2023-03-04T03:57:49;98274.38;;;-1.84;100.00
21574;BME280;10948;48.706;9.258;2023-03-04T04:00:14;98285.38;;;-1.69;100.00
21574;BME280;10948;48.706;9.258;2023-03-04T04:02:40;98279.50;;;-1.95;100.00
21574;BME280;10948;48.706;9.258;2023-03-04T04:05:06;98278.63;;;-1.82;100.00
21574;BME280;10948;48.706;9.258;2023-03-04T04:07:32;98281.19;;;-1.85;100.00
21574;BME280;10948;48.706;9.258;2023-03-04T04:09:57;98281.03;;;-1.49;100.00
21574;BME280;10948;48.706;9.258;2023-03-04T04:12:22;98287.97;;;-1.84;100.00
21574;BME280;10948;48.706;9.258;2023-03-04T04:14:48;98276.88;;;-1.71;100.00
21574;BME280;10948;48.706;9.258;2023-03-04T04:17:13;98278.66;;;-1.85;100.00
21574;BME280;10948;48.706;9.258;2023-03-04T04:19:39;98278.56;;;-1.70;100.00
21574;BME280;10948;48.706;9.258;2023-03-04T04:22:04;98276.94;;;-1.89;100.00
21574;BME280;10948;48.706;9.258;2023-03-04T04:24:30;98288.88;;;-2.04;100.00
21574;BME280;10948;48.706;9.258;2023-03-04T04:26:55;98287.13;;;-1.83;100.00
21574;BME280;10948;48.706;9.258;2023-03-04T04:29:21;98277.75;;;-1.76;100.00
21574;BME280;10948;48.706;9.258;2023-03-04T04:31:47;98289.63;;;-1.72;100.00
21574;BME280;10948;48.706;9.258;2023-03-04T04:34:12;98279.47;;;-1.81;100.00
21574;BME280;10948;48.706;9.258;2023-03-04T04:36:37;98284.63;;;-1.93;100.00
21574;BME280;10948;48.706;9.258;2023-03-04T04:39:02;98277.84;;;-2.06;100.00
21574;BME280;10948;48.706;9.258;2023-03-04T04:41:29;98285.50;;;-1.99;100.00
21574;BME280;10948;48.706;9.258;2023-03-04T04:43:55;98283.75;;;-1.91;100.00
21574;BME280;10948;48.706;9.258;2023-03-04T04:46:21;98290.59;;;-2.05;100.00
21574;BME280;10948;48.706;9.258;2023-03-04T04:48:47;98290.59;;;-2.20;100.00
21574;BME280;10948;48.706;9.258;2023-03-04T04:51:12;98291.47;;;-2.21;100.00
21574;BME280;10948;48.706;9.258;2023-03-04T04:53:37;98289.78;;;-2.26;100.00
21574;BME280;10948;48.706;9.258;2023-03-04T04:58:34;98290.63;;;-2.35;100.00
21574;BME280;10948;48.706;9.258;2023-03-04T05:00:59;98294.88;;;-2.14;100.00
21574;BME280;10948;48.706;9.258;2023-03-04T05:03:25;98294.91;;;-2.35;100.00
21574;BME280;10948;48.706;9.258;2023-03-04T05:05:50;98299.13;;;-2.21;100.00
21574;BME280;10948;48.706;9.258;2023-03-04T05:08:15;98295.75;;;-2.35;100.00
21574;BME280;10948;48.706;9.258;2023-03-04T05:10:41;98293.19;;;-2.29;100.00
21574;BME280;10948;48.706;9.258;2023-03-04T05:13:06;98287.25;;;-2.49;100.00
21574;BME280;10948;48.706;9.258;2023-03-04T05:15:31;98297.47;;;-2.46;100.00
21574;BME280;10948;48.706;9.258;2023-03-04T05:17:56;98287.25;;;-2.49;100.00
21574;BME280;10948;48.706;9.258;2023-03-04T05:20:21;98292.38;;;-2.52;100.00
21574;BME280;10948;48.706;9.258;2023-03-04T05:22:47;98288.97;;;-2.51;100.00
21574;BME280;10948;48.706;9.258;2023-03-04T05:25:13;98297.47;;;-2.46;100.00
21574;BME280;10948;48.706;9.258;2023-03-04T05:27:38;98301.66;;;-2.12;100.00
21574;BME280;10948;48.706;9.258;2023-03-04T05:30:03;98300.00;;;-2.38;100.00
21574;BME280;10948;48.706;9.258;2023-03-04T05:32:29;98297.44;;;-2.31;100.00
21574;BME280;10948;48.706;9.258;2023-03-04T05:34:54;98300.84;;;-2.35;100.00
21574;BME280;10948;48.706;9.258;2023-03-04T05:37:19;98296.53;;;-2.03;100.00
21574;BME280;10948;48.706;9.258;2023-03-04T05:39:44;98291.50;;;-2.34;100.00
21574;BME280;10948;48.706;9.258;2023-03-04T05:42:09;98297.44;;;-2.49;100.00
21574;BME280;10948;48.706;9.258;2023-03-04T05:44:35;98306.78;;;-2.66;100.00
21574;BME280;10948;48.706;9.258;2023-03-04T05:47:00;98302.56;;;-2.76;100.00
21574;BME280;10948;48.706;9.258;2023-03-04T05:49:25;98304.22;;;-2.66;100.00
21574;BME280;10948;48.706;9.258;2023-03-04T05:51:50;98311.06;;;-2.65;100.00
21574;BME280;10948;48.706;9.258;2023-03-04T05:54:16;98311.88;;;-2.42;100.00
21574;BME280;10948;48.706;9.258;2023-03-04T05:56:41;98314.44;;;-2.54;100.00
21574;BME280;10948;48.706;9.258;2023-03-04T05:59:06;98307.63;;;-2.25;100.00
21574;BME280;10948;48.706;9.258;2023-03-04T06:01:31;98316.13;;;-2.38;100.00
21574;BME280;10948;48.706;9.258;2023-03-04T06:03:57;98316.97;;;-2.60;100.00
21574;BME280;10948;48.706;9.258;2023-03-04T06:06:22;98319.50;;;-2.27;100.00
21574;BME280;10948;48.706;9.258;2023-03-04T06:08:47;98322.06;;;-2.42;100.00
21574;BME280;10948;48.706;9.258;2023-03-04T06:11:12;98322.91;;;-2.34;100.00
21574;BME280;10948;48.706;9.258;2023-03-04T06:13:38;98325.44;;;-2.40;100.00
21574;BME280;10948;48.706;9.258;2023-03-04T06:16:04;98332.28;;;-2.51;100.00
21574;BME280;10948;48.706;9.258;2023-03-04T06:18:29;98328.84;;;-2.20;100.00
21574;BME280;10948;48.706;9.258;2023-03-04T06:20:55;98330.56;;;-2.37;100.00
21574;BME280;10948;48.706;9.258;2023-03-04T06:23:20;98333.09;;;-2.28;100.00
21574;BME280;10948;48.706;9.258;2023-03-04T06:25:45;98334.81;;;-2.18;100.00
21574;BME280;10948;48.706;9.258;2023-03-04T06:28:11;98332.97;;;-1.74;100.00
21574;BME280;10948;48.706;9.258;2023-03-04T06:30:36;98331.31;;;-1.72;100.00
21574;BME280;10948;48.706;9.258;2023-03-04T06:33:02;98332.13;;;-1.71;100.00
21574;BME280;10948;48.706;9.258;2023-03-04T06:35:27;98334.66;;;-1.61;100.00
21574;BME280;10948;48.706;9.258;2023-03-04T06:37:52;98341.44;;;-1.60;100.00
21574;BME280;10948;48.706;9.258;2023-03-04T06:40:17;98345.59;;;-1.26;100.00
21574;BME280;10948;48.706;9.258;2023-03-04T06:42:42;98351.28;;;-0.79;100.00
21574;BME280;10948;48.706;9.258;2023-03-04T06:45:08;98355.50;;;-0.75;100.00
21574;BME280;10948;48.706;9.258;2023-03-04T06:47:33;98357.06;;;-0.56;100.00
21574;BME280;10948;48.706;9.258;2023-03-04T06:49:58;98356.94;;;-0.36;100.00
21574;BME280;10948;48.706;9.258;2023-03-04T06:52:24;98354.22;;;-0.20;100.00
21574;BME280;10948;48.706;9.258;2023-03-04T06:54:49;98365.06;;;0.09;100.00
21574;BME280;10948;48.706;9.258;2023-03-04T06:57:14;98355.56;;;0.20;100.00
21574;BME280;10948;48.706;9.258;2023-03-04T06:59:39;98356.97;;;0.45;100.00
21574;BME280;10948;48.706;9.258;2023-03-04T07:02:05;98363.41;;;0.79;100.00
21574;BME280;10948;48.706;9.258;2023-03-04T07:04:30;98364.22;;;0.84;100.00
21574;BME280;10948;48.706;9.258;2023-03-04T07:06:56;98359.81;;;0.95;100.00
21574;BME280;10948;48.706;9.258;2023-03-04T07:09:21;98360.78;;;0.85;100.00
21574;BME280;10948;48.706;9.258;2023-03-04T07:11:46;98362.44;;;0.89;100.00
21574;BME280;10948;48.706;9.258;2023-03-04T07:14:11;98366.84;;;0.78;100.00
21574;BME280;10948;48.706;9.258;2023-03-04T07:16:37;98373.69;;;0.76;100.00
21574;BME280;10948;48.706;9.258;2023-03-04T07:19:02;98376.34;;;0.68;100.00
21574;BME280;10948;48.706;9.258;2023-03-04T07:21:27;98375.41;;;0.77;100.00
21574;BME280;10948;48.706;9.258;2023-03-04T07:23:53;98374.56;;;0.76;100.00
21574;BME280;10948;48.706;9.258;2023-03-04T07:26:18;98379.16;;;1.15;100.00
21574;BME280;10948;48.706;9.258;2023-03-04T07:28:44;98385.78;;;1.33;100.00
21574;BME280;10948;48.706;9.258;2023-03-04T07:33:43;98395.41;;;1.13;100.00
21574;BME280;10948;48.706;9.258;2023-03-04T07:36:08;98391.72;;;1.35;100.00
21574;BME280;10948;48.706;9.258;2023-03-04T07:38:35;98394.28;;;1.33;100.00
21574;BME280;10948;48.706;9.258;2023-03-04T07:41:00;98389.75;;;1.52;100.00
21574;BME280;10948;48.706;9.258;2023-03-04T07:43:26;98392.16;;;1.62;100.00
21574;BME280;10948;48.706;9.258;2023-03-04T07:45:51;98393.63;;;1.78;100.00
21574;BME280;10948;48.706;9.258;2023-03-04T07:48:16;98388.44;;;1.81;100.00
21574;BME280;10948;48.706;9.258;2023-03-04T07:50:42;98387.47;;;1.90;100.00
21574;BME280;10948;48.706;9.258;2023-03-04T07:53:07;98392.44;;;1.99;100.00
21574;BME280;10948;48.706;9.258;2023-03-04T07:55:32;98395.63;;;2.13;100.00
21574;BME280;10948;48.706;9.258;2023-03-04T07:57:58;98394.97;;;2.00;100.00
21574;BME280;10948;48.706;9.258;2023-03-04T08:00:23;98398.34;;;2.02;100.00
21574;BME280;10948;48.706;9.258;2023-03-04T08:02:48;98404.50;;;1.94;100.00
21574;BME280;10948;48.706;9.258;2023-03-04T08:05:14;98405.84;;;2.16;100.00
21574;BME280;10948;48.706;9.258;2023-03-04T08:07:39;98402.19;;;2.29;100.00
21574;BME280;10948;48.706;9.258;2023-03-04T08:10:05;98413.63;;;2.10;100.00
21574;BME280;10948;48.706;9.258;2023-03-04T08:12:30;98415.25;;;2.15;100.00
21574;BME280;10948;48.706;9.258;2023-03-04T08:14:55;98416.03;;;2.19;100.00
21574;BME280;10948;48.706;9.258;2023-03-04T08:17:20;98418.47;;;2.29;100.00
21574;BME280;10948;48.706;9.258;2023-03-04T08:19:46;98418.31;;;2.35;100.00
21574;BME280;10948;48.706;9.258;2023-03-04T08:22:11;98419.34;;;2.27;100.00
21574;BME280;10948;48.706;9.258;2023-03-04T08:24:36;98420.97;;;2.31;100.00
21574;BME280;10948;48.706;9.258;2023-03-04T08:27:02;98422.78;;;2.26;100.00
21574;BME280;10948;48.706;9.258;2023-03-04T08:29:27;98421.19;;;2.19;100.00
21574;BME280;10948;48.706;9.258;2023-03-04T08:31:53;98423.91;;;2.10;100.00
21574;BME280;10948;48.706;9.258;2023-03-04T08:34:19;98424.69;;;2.15;100.00
21574;BME280;10948;48.706;9.258;2023-03-04T08:36:45;98430.53;;;2.23;100.00
21574;BME280;10948;48.706;9.258;2023-03-04T08:39:11;98436.19;;;2.43;100.00
21574;BME280;10948;48.706;9.258;2023-03-04T08:41:37;98430.56;;;2.21;100.00
21574;BME280;10948;48.706;9.258;2023-03-04T08:44:02;98433.88;;;2.29;100.00
21574;BME280;10948;48.706;9.258;2023-03-04T08:46:28;98439.47;;;2.51;100.00
21574;BME280;10948;48.706;9.258;2023-03-04T08:48:53;98439.72;;;2.36;100.00
21574;BME280;10948;48.706;9.258;2023-03-04T08:51:18;98446.19;;;2.58;100.00
21574;BME280;10948;48.706;9.258;2023-03-04T08:53:43;98442.13;;;2.45;100.00
21574;BME280;10948;48.706;9.258;2023-03-04T08:56:09;98442.19;;;2.42;100.00
21574;BME280;10948;48.706;9.258;2023-03-04T08:58:35;98436.28;;;2.37;100.00
21574;BME280;10948;48.706;9.258;2023-03-04T09:01:00;98438.66;;;2.47;100.00
21574;BME280;10948;48.706;9.258;2023-03-04T09:03:26;98439.78;;;2.33;100.00
21574;BME280;10948;48.706;9.258;2023-03-04T09:05:51;98451.69;;;2.37;100.00
21574;BME280;10948;48.706;9.258;2023-03-04T09:08:16;98447.94;;;2.56;100.00
21574;BME280;10948;48.706;9.258;2023-03-04T09:10:42;98441.25;;;2.46;100.00
21574;BME280;10948;48.706;9.258;2023-03-04T09:13:08;98440.91;;;2.67;100.00
21574;BME280;10948;48.706;9.258;2023-03-04T09:15:35;98447.81;;;2.62;100.00
21574;BME280;10948;48.706;9.258;2023-03-04T09:18:01;98442.25;;;2.86;100.00
21574;BME280;10948;48.706;9.258;2023-03-04T09:20:27;98448.59;;;2.67;100.00
21574;BME280;10948;48.706;9.258;2023-03-04T09:22:53;98450.38;;;2.63;100.00
21574;BME280;10948;48.706;9.258;2023-03-04T09:25:18;98449.47;;;2.66;100.00
21574;BME280;10948;48.706;9.258;2023-03-04T09:27:43;98452.88;;;2.66;100.00
21574;BME280;10948;48.706;9.258;2023-03-04T09:30:09;98455.72;;;2.51;100.00
21574;BME280;10948;48.706;9.258;2023-03-04T09:32:34;98452.47;;;2.42;100.00
21574;BME280;10948;48.706;9.258;2023-03-04T09:35:00;98453.00;;;2.59;100.00
21574;BME280;10948;48.706;9.258;2023-03-04T09:37:25;98452.88;;;2.68;100.00
21574;BME280;10948;48.706;9.258;2023-03-04T09:39:50;98452.19;;;2.57;100.00
21574;BME280;10948;48.706;9.258;2023-03-04T09:42:26;98443.28;;;2.76;100.00
21574;BME280;10948;48.706;9.258;2023-03-04T09:44:52;98438.81;;;2.87;100.00
21574;BME280;10948;48.706;9.258;2023-03-04T09:47:18;98439.72;;;2.83;100.00
21574;BME280;10948;48.706;9.258;2023-03-04T09:49:47;98448.09;;;2.92;100.00
21574;BME280;10948;48.706;9.258;2023-03-04T09:52:41;98440.97;;;3.06;100.00
21574;BME280;10948;48.706;9.258;2023-03-04T09:57:29;98442.06;;;2.95;100.00
21574;BME280;10948;48.706;9.258;2023-03-04T10:02:43;98443.09;;;3.29;100.00
21574;BME280;10948;48.706;9.258;2023-03-04T10:05:11;98446.66;;;3.22;100.00
21574;BME280;10948;48.706;9.258;2023-03-04T10:07:40;98455.41;;;3.12;100.00
21574;BME280;10948;48.706;9.258;2023-03-04T10:10:21;98447.44;;;3.25;100.00
21574;BME280;10948;48.706;9.258;2023-03-04T10:12:49;98443.16;;;3.26;100.00
21574;BME280;10948;48.706;9.258;2023-03-04T10:15:21;98443.91;;;3.31;100.00
21574;BME280;10948;48.706;9.258;2023-03-04T10:17:48;98439.00;;;3.19;100.00
21574;BME280;10948;48.706;9.258;2023-03-04T10:20:18;98432.94;;;3.23;100.00
21574;BME280;10948;48.706;9.258;2023-03-04T10:22:52;98445.53;;;3.35;100.00
21574;BME280;10948;48.706;9.258;2023-03-04T10:25:27;98440.44;;;3.32;100.00
21574;BME280;10948;48.706;9.258;2023-03-04T10:27:57;98433.50;;;3.75;100.00
21574;BME280;10948;48.706;9.258;2023-03-04T10:33:00;98434.72;;;3.59;100.00
21574;BME280;10948;48.706;9.258;2023-03-04T10:35:26;98432.09;;;3.62;100.00
21574;BME280;10948;48.706;9.258;2023-03-04T10:37:57;98429.91;;;3.82;100.00
21574;BME280;10948;48.706;9.258;2023-03-04T10:40:26;98425.28;;;4.31;99.49
21574;BME280;10948;48.706;9.258;2023-03-04T10:42:51;98426.97;;;4.65;96.28
21574;BME280;10948;48.706;9.258;2023-03-04T10:45:29;98422.22;;;4.50;94.23
21574;BME280;10948;48.706;9.258;2023-03-04T10:47:55;98431.19;;;4.34;93.06
21574;BME280;10948;48.706;9.258;2023-03-04T10:50:25;98419.97;;;4.37;92.08
21574;BME280;10948;48.706;9.258;2023-03-04T10:52:50;98414.06;;;4.67;90.49
21574;BME280;10948;48.706;9.258;2023-03-04T10:57:42;98407.81;;;4.75;88.62
21574;BME280;10948;48.706;9.258;2023-03-04T11:02:40;98398.91;;;5.15;87.24
21574;BME280;10948;48.706;9.258;2023-03-04T11:05:10;98393.81;;;5.43;85.41
21574;BME280;10948;48.706;9.258;2023-03-04T11:07:42;98395.72;;;5.36;83.61
21574;BME280;10948;48.706;9.258;2023-03-04T11:10:12;98399.38;;;5.58;81.91
21574;BME280;10948;48.706;9.258;2023-03-04T11:12:38;98394.72;;;5.42;82.32
21574;BME280;10948;48.706;9.258;2023-03-04T11:15:14;98389.28;;;5.22;83.28
21574;BME280;10948;48.706;9.258;2023-03-04T11:17:42;98387.97;;;5.36;81.82
21574;BME280;10948;48.706;9.258;2023-03-04T11:20:23;98393.25;;;5.61;82.46
21574;BME280;10948;48.706;9.258;2023-03-04T11:22:50;98380.84;;;5.44;82.18
21574;BME280;10948;48.706;9.258;2023-03-04T11:25:25;98384.81;;;6.11;79.44
21574;BME280;10948;48.706;9.258;2023-03-04T11:27:53;98378.88;;;6.07;77.79
21574;BME280;10948;48.706;9.258;2023-03-04T11:32:44;98373.41;;;6.16;76.28
21574;BME280;10948;48.706;9.258;2023-03-04T11:37:58;98375.50;;;5.50;76.16
21574;BME280;10948;48.706;9.258;2023-03-04T11:48:33;98364.16;;;5.56;78.17
21574;BME280;10948;48.706;9.258;2023-03-04T11:51:01;98368.19;;;5.64;78.03
21574;BME280;10948;48.706;9.258;2023-03-04T11:56:03;98358.06;;;5.58;76.45
21574;BME280;10948;48.706;9.258;2023-03-04T12:01:09;98352.94;;;5.84;75.76
21574;BME280;10948;48.706;9.258;2023-03-04T12:03:42;98353.66;;;5.62;76.49
21574;BME280;10948;48.706;9.258;2023-03-04T12:19:45;98324.41;;;5.61;76.88
21574;BME280;10948;48.706;9.258;2023-03-04T12:22:35;98329.19;;;5.73;75.44
21574;BME280;10948;48.706;9.258;2023-03-04T12:25:28;98316.84;;;5.55;76.07
21574;BME280;10948;48.706;9.258;2023-03-04T12:27:54;98320.34;;;5.82;75.82
21574;BME280;10948;48.706;9.258;2023-03-04T12:33:02;98308.69;;;5.69;74.91
21574;BME280;10948;48.706;9.258;2023-03-04T12:37:59;98300.50;;;5.82;73.57
21574;BME280;10948;48.706;9.258;2023-03-04T12:40:42;98293.53;;;5.84;74.98
21574;BME280;10948;48.706;9.258;2023-03-04T12:48:31;98292.41;;;5.39;77.04
21574;BME280;10948;48.706;9.258;2023-03-04T12:58:52;98282.91;;;5.67;75.47
21574;BME280;10948;48.706;9.258;2023-03-04T13:01:26;98276.53;;;5.77;75.26
21574;BME280;10948;48.706;9.258;2023-03-04T13:14:21;98273.53;;;6.15;72.79
21574;BME280;10948;48.706;9.258;2023-03-04T13:16:48;98268.44;;;6.61;70.88
21574;BME280;10948;48.706;9.258;2023-03-04T13:21:58;98270.38;;;6.32;71.56
21574;BME280;10948;48.706;9.258;2023-03-04T13:32:55;98268.28;;;6.18;70.96
21574;BME280;10948;48.706;9.258;2023-03-04T13:38:31;98269.31;;;6.37;71.76
21574;BME280;10948;48.706;9.258;2023-03-04T13:51:18;98274.66;;;6.08;72.88
21574;BME280;10948;48.706;9.258;2023-03-04T13:53:50;98271.66;;;5.96;72.91
21574;BME280;10948;48.706;9.258;2023-03-04T13:56:25;98272.69;;;5.90;74.39
21574;BME280;10948;48.706;9.258;2023-03-04T14:01:33;98273.66;;;6.12;74.34
21574;BME280;10948;48.706;9.258;2023-03-04T14:03:59;98273.88;;;6.06;74.22
21574;BME280;10948;48.706;9.258;2023-03-04T14:06:26;98279.34;;;5.71;74.73
21574;BME280;10948;48.706;9.258;2023-03-04T14:08:52;98271.38;;;5.77;74.91
21574;BME280;10948;48.706;9.258;2023-03-04T14:11:28;98281.41;;;5.34;75.87
21574;BME280;10948;48.706;9.258;2023-03-04T14:13:56;98278.28;;;5.23;76.87
21574;BME280;10948;48.706;9.258;2023-03-04T14:16:25;98279.59;;;5.36;75.51
21574;BME280;10948;48.706;9.258;2023-03-04T14:19:01;98273.94;;;5.25;76.47
21574;BME280;10948;48.706;9.258;2023-03-04T14:21:27;98279.91;;;5.27;76.44
21574;BME280;10948;48.706;9.258;2023-03-04T14:23:59;98270.97;;;5.37;76.57
21574;BME280;10948;48.706;9.258;2023-03-04T14:26:24;98274.38;;;5.39;75.66
21574;BME280;10948;48.706;9.258;2023-03-04T14:28:50;98268.78;;;5.25;75.58
21574;BME280;10948;48.706;9.258;2023-03-04T14:31:20;98266.09;;;5.28;76.13
21574;BME280;10948;48.706;9.258;2023-03-04T14:33:47;98260.94;;;5.28;76.95
21574;BME280;10948;48.706;9.258;2023-03-04T14:36:14;98256.25;;;5.13;77.04
21574;BME280;10948;48.706;9.258;2023-03-04T14:38:41;98255.69;;;5.31;77.20
21574;BME280;10948;48.706;9.258;2023-03-04T14:41:09;98249.66;;;5.32;77.29
21574;BME280;10948;48.706;9.258;2023-03-04T14:43:43;98249.25;;;5.18;77.94